19:33
Airports
History
Links
Donate
Help keep this website running!
PayPal
Bitcoin
Information on this page is community maintained and may be outdated or inaccurate and is intended for reference only or PC simulator navigating.
Always use approved charts for navigating.
LIRH
Frosinone
Frosinone (LIRH)
Frosinone, Lazio, Italy (3100)
4
Lat/Lng:41° 38' 45" N / 13° 18' 0" E
41.645832 / 13.3
Elevation:645'ft 197mMSL
ID / ICAO:LIRH
Runways:1
Longest:(34-16) 1,432.3m 4,699ft Dirt
Distance To
Airport ID:
Nearby VORs <50NM
Nearby NDBs
METARUpdated 05-26-17 17:55 GMT
Altimeter: 29.94
Visibility: 6.2 statute miles
Wind: 5 knots (170°)
Temp: 23°c 73°f
Humidity: 40.9%

METAR: LIRH 261755Z 17005KT 9999 SCT035 23/09 Q1014

(Powered by phpweather)
Runway 34 / 16
Dimensions:1432.3 x 39.9m 4699' x 131'ft
Surface:Dirt
Runway 34 [A]Runway 16 [B]
Heading:342°TH 162°TH
Lat:
Lng:
41° 38' 22.95"N
13° 18' 9.58"E
41° 39' 7.04"N
13° 17' 50.42"E
User Notes and Comments
Google Map
Nearby Airports
(C) LATINA 21.4 NM
LIRL (WX) WSW 250°
(U) Aquino 24.3 NM
LIAQ ESE 117°
(C) GUIDONIA 37.5 NM
LIRG (WX) NW 309°
(C) CIAMPINO 37.9 NM
LIRA (WX) WNW 286°
(C) Pratica Di Mare 44.1 NM
LIRE (WX) W 270°
(C) Urbe 46.2 NM
LIRU (WX) WNW 297°
(C) Aeroporto dei Parchi 50.7 NM
LIAP N
VFR Chart
Flight Planning at SkyVector.com